Time;durP1;ratioP1;P1;durP2;ratioP2;P2;SDS_P1;SDS_P2;PMS_P1;PMS_P2;Temp;Humidity;BMP_temperature;BMP_pressure;BME280_temperature;BME280_humidity;BME280_pressure;Samples;Min_cycle;Max_cycle;Signal;HPM_P1;HPM_P2
2023/05/30 00:01:26;;;;;;;;;;;20.90;92.70;;;;;;5095220;28;19947;-59
2023/05/30 00:03:52;;;;;;;;;;;20.90;92.70;;;;;;5095139;28;19969;-59
2023/05/30 00:06:17;;;;;;;;;;;20.90;92.90;;;;;;5095034;28;19963;-59
2023/05/30 00:08:43;;;;;;;;;;;20.90;92.70;;;;;;5095049;28;19916;-59
2023/05/30 00:11:09;;;;;;;;;;;20.90;92.70;;;;;;5095087;28;19909;-58
2023/05/30 00:13:35;;;;;;;;;;;20.90;92.70;;;;;;5095340;28;19950;-59
2023/05/30 00:16:01;;;;;;;;;;;20.90;92.70;;;;;;5094627;28;20357;-59
2023/05/30 00:18:34;;;;;;;;;;;20.90;92.70;;;;;;5094865;28;19923;-59
2023/05/30 00:21:02;;;;;;;;;;;20.90;92.70;;;;;;5100903;28;20266;-59
2023/05/30 00:23:28;;;;;;;;;;;20.90;92.70;;;;;;5115194;28;19931;-59
2023/05/30 00:25:55;;;;;;;;;;;20.90;92.70;;;;;;5115135;28;20342;-58
2023/05/30 00:28:22;;;;;;;;;;;20.90;92.60;;;;;;5115079;28;19934;-59
2023/05/30 00:30:47;;;;;;;;;;;20.90;92.60;;;;;;5115108;28;19911;-59
2023/05/30 00:33:13;;;;;;;;;;;20.90;92.60;;;;;;5115046;28;19908;-59
2023/05/30 00:35:38;;;;;;;;;;;20.90;92.60;;;;;;5114977;28;20263;-58
2023/05/30 00:38:04;;;;;;;;;;;20.90;92.60;;;;;;5114587;28;19908;-59
2023/05/30 00:40:30;;;;;;;;;;;20.90;92.60;;;;;;5096578;28;19908;-59
2023/05/30 00:42:55;;;;;;;;;;;20.90;92.60;;;;;;5096239;28;19915;-59
2023/05/30 00:45:21;;;;;;;;;;;20.90;92.60;;;;;;5114557;28;19931;-59
2023/05/30 00:47:47;;;;;;;;;;;20.90;92.60;;;;;;5114816;28;19908;-59
2023/05/30 00:50:15;;;;;;;;;;;20.90;92.60;;;;;;5114408;28;20373;-59
2023/05/30 00:52:40;;;;;;;;;;;20.90;92.80;;;;;;5114140;28;19907;-58
2023/05/30 00:55:06;;;;;;;;;;;20.90;92.60;;;;;;5114735;28;20278;-58
2023/05/30 00:57:33;;;;;;;;;;;20.90;92.60;;;;;;5114671;28;19908;-59
2023/05/30 00:59:59;;;;;;;;;;;20.90;92.60;;;;;;5114417;28;19907;-59
2023/05/30 01:02:25;;;;;;;;;;;20.90;92.60;;;;;;5114339;28;19929;-59
2023/05/30 01:04:50;;;;;;;;;;;20.90;92.60;;;;;;5114555;28;19920;-58
2023/05/30 01:07:16;;;;;;;;;;;20.90;92.60;;;;;;5114666;28;19914;-59
2023/05/30 01:09:41;;;;;;;;;;;20.90;92.60;;;;;;5099926;28;20374;-58
2023/05/30 01:12:07;;;;;;;;;;;20.90;92.60;;;;;;5076125;28;19916;-59
2023/05/30 01:14:59;;;;;;;;;;;20.90;92.60;;;;;;5093823;28;20416;-59
2023/05/30 01:17:28;;;;;;;;;;;20.90;92.60;;;;;;5089015;28;19908;-58
2023/05/30 01:20:07;;;;;;;;;;;20.90;92.60;;;;;;5093741;28;19908;-58
2023/05/30 01:23:08;;;;;;;;;;;20.90;92.60;;;;;;5112845;28;20006;-58
2023/05/30 01:25:37;;;;;;;;;;;20.90;92.60;;;;;;5031372;28;20308;-58
2023/05/30 01:28:03;;;;;;;;;;;20.90;92.60;;;;;;5098539;28;20334;-58
2023/05/30 01:30:29;;;;;;;;;;;20.80;92.60;;;;;;5114073;28;19907;-58
2023/05/30 01:32:55;;;;;;;;;;;20.90;92.60;;;;;;5114362;28;19915;-58
2023/05/30 01:35:21;;;;;;;;;;;20.80;92.60;;;;;;5114280;28;19927;-58
2023/05/30 01:37:47;;;;;;;;;;;20.80;92.60;;;;;;5113997;28;19993;-58
2023/05/30 01:40:13;;;;;;;;;;;20.80;92.60;;;;;;5114401;28;20007;-58
2023/05/30 01:42:39;;;;;;;;;;;20.80;92.80;;;;;;5114326;28;20336;-58
2023/05/30 01:45:15;;;;;;;;;;;20.80;92.60;;;;;;5095658;28;19926;-58
2023/05/30 01:47:48;;;;;;;;;;;20.80;92.60;;;;;;5113904;28;19908;-58
2023/05/30 01:50:16;;;;;;;;;;;20.80;92.50;;;;;;5114307;28;19908;-58
2023/05/30 01:52:43;;;;;;;;;;;20.80;92.80;;;;;;5114497;28;19918;-58
2023/05/30 01:55:10;;;;;;;;;;;20.80;92.80;;;;;;5113987;28;19908;-58
2023/05/30 01:57:46;;;;;;;;;;;20.80;92.60;;;;;;5114109;28;19908;-58
2023/05/30 02:00:12;;;;;;;;;;;20.80;92.60;;;;;;5114172;28;19918;-58
2023/05/30 02:02:38;;;;;;;;;;;20.80;92.60;;;;;;5114396;28;19962;-57
2023/05/30 02:05:04;;;;;;;;;;;20.80;92.90;;;;;;5117215;28;20301;-58
2023/05/30 02:07:29;;;;;;;;;;;20.80;92.60;;;;;;5117816;28;19954;-58
2023/05/30 02:09:55;;;;;;;;;;;20.80;92.60;;;;;;5100922;28;20007;-58
2023/05/30 02:12:20;;;;;;;;;;;20.80;92.60;;;;;;5097355;28;20359;-58
2023/05/30 02:14:47;;;;;;;;;;;20.80;92.60;;;;;;5097289;28;19915;-58
2023/05/30 02:17:13;;;;;;;;;;;20.80;92.60;;;;;;5097266;28;20251;-58
2023/05/30 02:19:39;;;;;;;;;;;20.80;92.50;;;;;;5096940;28;20305;-58
2023/05/30 02:22:05;;;;;;;;;;;20.80;92.50;;;;;;5111927;28;19908;-56
2023/05/30 02:24:31;;;;;;;;;;;20.80;92.40;;;;;;5117184;28;19916;-58
2023/05/30 02:26:57;;;;;;;;;;;20.80;92.50;;;;;;5117145;28;19995;-58
2023/05/30 02:29:22;;;;;;;;;;;20.80;92.30;;;;;;5117189;28;19975;-58
2023/05/30 02:31:48;;;;;;;;;;;20.80;92.30;;;;;;5117412;28;19914;-58
2023/05/30 02:34:13;;;;;;;;;;;20.80;92.10;;;;;;5117289;28;19907;-58
2023/05/30 02:36:39;;;;;;;;;;;20.80;92.10;;;;;;5117256;28;19994;-58
2023/05/30 02:39:06;;;;;;;;;;;20.80;92.20;;;;;;5117111;28;20296;-58
2023/05/30 02:41:32;;;;;;;;;;;20.80;92.20;;;;;;5116918;28;20000;-58
2023/05/30 02:43:58;;;;;;;;;;;20.80;92.50;;;;;;5117246;28;19920;-58
2023/05/30 02:46:23;;;;;;;;;;;20.80;92.40;;;;;;5117004;28;19915;-58
2023/05/30 02:48:49;;;;;;;;;;;20.80;92.40;;;;;;5117041;28;19908;-58
2023/05/30 02:51:14;;;;;;;;;;;20.70;92.30;;;;;;5117078;28;19907;-58
2023/05/30 02:53:40;;;;;;;;;;;20.70;92.30;;;;;;5116976;28;19908;-58
2023/05/30 02:56:06;;;;;;;;;;;20.70;92.30;;;;;;5116577;28;20278;-58
2023/05/30 02:58:31;;;;;;;;;;;20.70;92.20;;;;;;5098545;28;19998;-58
2023/05/30 03:00:57;;;;;;;;;;;20.80;92.30;;;;;;5116789;28;19908;-58
2023/05/30 03:03:24;;;;;;;;;;;20.70;92.30;;;;;;5116740;28;19908;-58
2023/05/30 03:05:51;;;;;;;;;;;20.70;92.40;;;;;;5116355;28;20264;-58
2023/05/30 03:08:16;;;;;;;;;;;20.70;92.40;;;;;;5113925;28;19915;-58
2023/05/30 03:10:42;;;;;;;;;;;20.70;92.50;;;;;;5095890;28;20286;-58
2023/05/30 03:13:07;;;;;;;;;;;20.80;92.50;;;;;;5096030;28;20008;-58
2023/05/30 03:15:33;;;;;;;;;;;20.70;92.50;;;;;;5095423;28;19908;-58
2023/05/30 03:17:58;;;;;;;;;;;20.80;92.50;;;;;;5096025;28;19915;-58
2023/05/30 03:20:25;;;;;;;;;;;20.80;92.50;;;;;;5096597;28;19908;-58
2023/05/30 03:22:50;;;;;;;;;;;20.80;92.50;;;;;;5116380;28;19945;-58
2023/05/30 03:25:16;;;;;;;;;;;20.70;92.40;;;;;;5116242;28;19970;-58
2023/05/30 03:27:41;;;;;;;;;;;20.70;92.50;;;;;;5116599;28;19928;-58
2023/05/30 03:30:07;;;;;;;;;;;20.70;92.60;;;;;;5116214;28;20377;-58
2023/05/30 03:32:32;;;;;;;;;;;20.70;92.60;;;;;;5097825;28;19907;-58
2023/05/30 03:34:58;;;;;;;;;;;20.70;92.60;;;;;;5115862;28;20342;-58
2023/05/30 03:37:23;;;;;;;;;;;20.70;92.60;;;;;;5115803;28;20019;-58
2023/05/30 03:39:49;;;;;;;;;;;20.70;92.80;;;;;;5116109;28;19939;-58
2023/05/30 03:42:14;;;;;;;;;;;20.70;92.60;;;;;;5115690;28;19947;-58
2023/05/30 03:44:40;;;;;;;;;;;20.70;92.60;;;;;;5115485;28;19920;-58
2023/05/30 03:47:05;;;;;;;;;;;20.70;92.60;;;;;;5115821;28;19908;-58
2023/05/30 03:49:31;;;;;;;;;;;20.70;92.60;;;;;;5115828;28;20362;-58
2023/05/30 03:51:56;;;;;;;;;;;20.70;92.60;;;;;;5115788;28;20003;-58
2023/05/30 03:54:21;;;;;;;;;;;20.70;92.60;;;;;;5097585;28;19908;-58
2023/05/30 03:56:47;;;;;;;;;;;20.70;92.60;;;;;;5115319;28;20458;-58
2023/05/30 03:59:13;;;;;;;;;;;20.70;92.60;;;;;;5115973;28;19908;-58
2023/05/30 04:01:39;;;;;;;;;;;20.70;92.60;;;;;;5115569;28;19943;-58
2023/05/30 04:04:04;;;;;;;;;;;20.70;92.60;;;;;;5115719;28;19916;-58
2023/05/30 04:06:30;;;;;;;;;;;20.70;92.70;;;;;;5115705;28;19908;-58
2023/05/30 04:08:55;;;;;;;;;;;20.70;92.70;;;;;;5106924;28;19908;-58
2023/05/30 04:11:21;;;;;;;;;;;20.70;92.70;;;;;;5094696;28;19912;-58
2023/05/30 04:13:46;;;;;;;;;;;20.70;92.70;;;;;;5095167;28;20007;-58
2023/05/30 04:16:12;;;;;;;;;;;20.70;92.60;;;;;;5076800;28;19908;-58
2023/05/30 04:18:43;;;;;;;;;;;20.70;92.90;;;;;;5094872;28;19908;-58
2023/05/30 04:21:14;;;;;;;;;;;20.70;92.70;;;;;;5101696;28;19915;-58
2023/05/30 04:23:40;;;;;;;;;;;20.70;92.70;;;;;;5115215;28;19957;-58
2023/05/30 04:26:06;;;;;;;;;;;20.70;92.70;;;;;;5115116;28;19916;-58
2023/05/30 04:28:32;;;;;;;;;;;20.70;92.70;;;;;;5114525;28;19911;-58
2023/05/30 04:30:58;;;;;;;;;;;20.70;92.70;;;;;;5096785;28;20362;-58
2023/05/30 04:33:24;;;;;;;;;;;20.70;92.60;;;;;;5114994;28;19907;-58
2023/05/30 04:35:50;;;;;;;;;;;20.70;92.60;;;;;;5115277;28;19912;-58
2023/05/30 04:38:20;;;;;;;;;;;20.70;92.60;;;;;;5114644;28;19931;-58
2023/05/30 04:40:48;;;;;;;;;;;20.70;92.60;;;;;;5114513;28;20006;-58
2023/05/30 04:43:14;;;;;;;;;;;20.70;92.60;;;;;;5114733;28;19987;-58
2023/05/30 04:45:41;;;;;;;;;;;20.70;92.60;;;;;;5096046;28;19963;-58
2023/05/30 04:48:07;;;;;;;;;;;20.70;92.60;;;;;;5096558;28;19915;-58
2023/05/30 04:50:33;;;;;;;;;;;20.70;92.50;;;;;;5114445;28;20121;-59
2023/05/30 04:52:58;;;;;;;;;;;20.70;92.40;;;;;;5114426;28;19951;-59
2023/05/30 04:55:24;;;;;;;;;;;20.70;92.40;;;;;;5114561;28;19915;-58
2023/05/30 04:57:49;;;;;;;;;;;20.70;92.40;;;;;;5114496;28;19908;-58
2023/05/30 05:00:15;;;;;;;;;;;20.70;92.30;;;;;;5114527;28;20262;-58
2023/05/30 05:02:44;;;;;;;;;;;20.70;92.40;;;;;;5114526;28;19908;-58
2023/05/30 05:05:09;;;;;;;;;;;20.70;92.50;;;;;;5114146;28;19969;-59
2023/05/30 05:07:35;;;;;;;;;;;20.70;92.50;;;;;;5114096;28;20312;-59
2023/05/30 05:10:01;;;;;;;;;;;20.70;92.60;;;;;;5097156;28;20042;-59
2023/05/30 05:12:26;;;;;;;;;;;20.70;92.60;;;;;;5075936;28;19954;-59
2023/05/30 05:14:53;;;;;;;;;;;20.70;92.50;;;;;;5093709;28;19908;-59
2023/05/30 05:17:18;;;;;;;;;;;20.70;92.30;;;;;;5094153;28;19915;-58
2023/05/30 05:19:44;;;;;;;;;;;20.70;92.80;;;;;;5094227;28;19908;-59
2023/05/30 05:22:10;;;;;;;;;;;20.70;92.60;;;;;;5109697;28;20390;-59
2023/05/30 05:24:35;;;;;;;;;;;20.70;92.60;;;;;;5113882;28;19938;-58
2023/05/30 05:27:01;;;;;;;;;;;20.70;92.40;;;;;;5095971;28;19998;-59
2023/05/30 05:29:26;;;;;;;;;;;20.70;92.20;;;;;;5113968;28;19995;-59
2023/05/30 05:31:52;;;;;;;;;;;20.70;92.40;;;;;;5114316;28;19915;-58
2023/05/30 05:34:17;;;;;;;;;;;20.70;92.50;;;;;;5095988;28;20368;-59
2023/05/30 05:36:43;;;;;;;;;;;20.70;92.50;;;;;;5113928;28;19907;-59
2023/05/30 05:39:08;;;;;;;;;;;20.70;92.50;;;;;;5115702;28;20239;-59
2023/05/30 05:41:34;;;;;;;;;;;20.70;92.30;;;;;;5118192;28;19943;-58
2023/05/30 05:44:00;;;;;;;;;;;20.70;92.30;;;;;;5118323;28;19966;-59
2023/05/30 05:46:26;;;;;;;;;;;20.70;92.30;;;;;;5117741;28;19916;-58
2023/05/30 05:48:54;;;;;;;;;;;20.70;92.30;;;;;;5118207;28;20010;-58
2023/05/30 05:51:19;;;;;;;;;;;20.70;92.40;;;;;;5117670;28;19908;-59
2023/05/30 05:53:45;;;;;;;;;;;20.70;92.40;;;;;;5118058;28;19933;-59
2023/05/30 05:56:10;;;;;;;;;;;20.70;92.40;;;;;;5117509;28;19931;-59
2023/05/30 05:58:36;;;;;;;;;;;20.70;92.30;;;;;;5118099;28;20339;-59
2023/05/30 06:01:02;;;;;;;;;;;20.70;92.30;;;;;;5099486;28;20000;-59
2023/05/30 06:03:28;;;;;;;;;;;20.70;92.30;;;;;;5117578;28;20056;-58
2023/05/30 06:05:53;;;;;;;;;;;20.70;92.30;;;;;;5117731;28;19923;-58
2023/05/30 06:08:18;;;;;;;;;;;20.70;92.30;;;;;;5114624;28;19989;-56
2023/05/30 06:10:44;;;;;;;;;;;20.70;92.30;;;;;;5097350;28;19908;-58
2023/05/30 06:13:10;;;;;;;;;;;20.70;92.30;;;;;;5096960;28;19958;-58
2023/05/30 06:15:35;;;;;;;;;;;20.70;92.30;;;;;;5098848;28;19919;-58
2023/05/30 06:18:01;;;;;;;;;;;20.70;92.40;;;;;;5111862;28;20316;-58
2023/05/30 06:20:26;;;;;;;;;;;20.70;92.40;;;;;;5109924;28;19918;-59
2023/05/30 06:22:51;;;;;;;;;;;20.70;92.30;;;;;;5111769;28;19915;-58
2023/05/30 06:25:17;;;;;;;;;;;20.70;92.40;;;;;;5096849;28;19974;-59
2023/05/30 06:27:42;;;;;;;;;;;20.70;92.40;;;;;;5097185;28;19908;-58
2023/05/30 06:30:08;;;;;;;;;;;20.70;92.50;;;;;;5115648;28;19952;-58
2023/05/30 06:32:33;;;;;;;;;;;20.70;92.50;;;;;;5104905;28;20361;-58
2023/05/30 06:34:59;;;;;;;;;;;20.70;92.10;;;;;;5086201;28;20287;-58
2023/05/30 06:37:25;;;;;;;;;;;20.70;92.40;;;;;;5092578;28;19931;-58
2023/05/30 06:39:50;;;;;;;;;;;20.70;92.40;;;;;;5090438;28;20016;-60
2023/05/30 06:42:15;;;;;;;;;;;20.70;92.60;;;;;;5092567;28;19953;-59
2023/05/30 06:44:41;;;;;;;;;;;20.70;92.40;;;;;;5086246;28;19963;-59
2023/05/30 06:47:06;;;;;;;;;;;20.70;92.40;;;;;;5096618;28;19909;-59
2023/05/30 06:49:32;;;;;;;;;;;20.60;92.10;;;;;;5095815;28;20331;-59
2023/05/30 06:51:57;;;;;;;;;;;20.70;92.30;;;;;;5113194;28;20387;-57
2023/05/30 06:54:23;;;;;;;;;;;20.70;92.30;;;;;;5095182;28;19912;-58
2023/05/30 06:56:49;;;;;;;;;;;20.70;90.50;;;;;;5096263;28;19909;-59
2023/05/30 06:59:14;;;;;;;;;;;20.60;88.50;;;;;;5094402;28;19918;-57
2023/05/30 07:01:40;;;;;;;;;;;20.60;87.90;;;;;;5096202;28;20355;-54
2023/05/30 07:04:06;;;;;;;;;;;20.60;87.80;;;;;;5097854;28;19912;-59
2023/05/30 07:06:31;;;;;;;;;;;20.70;89.80;;;;;;5095339;28;20274;-59
2023/05/30 07:08:57;;;;;;;;;;;20.60;90.20;;;;;;5095111;28;19947;-59
2023/05/30 07:11:23;;;;;;;;;;;20.60;90.30;;;;;;5096207;28;19908;-59
2023/05/30 07:13:48;;;;;;;;;;;20.60;90.60;;;;;;5095970;28;19908;-59
2023/05/30 07:16:13;;;;;;;;;;;20.60;90.80;;;;;;5096179;28;20263;-59
2023/05/30 07:18:39;;;;;;;;;;;20.60;91.00;;;;;;5077601;28;19918;-59
2023/05/30 07:21:05;;;;;;;;;;;20.60;91.10;;;;;;5102199;28;19958;-59
2023/05/30 07:23:31;;;;;;;;;;;20.60;91.20;;;;;;5097723;28;20358;-59
2023/05/30 07:25:56;;;;;;;;;;;20.60;90.90;;;;;;5097590;28;19965;-59
2023/05/30 07:28:22;;;;;;;;;;;20.60;91.20;;;;;;5115709;28;20350;-59
2023/05/30 07:30:48;;;;;;;;;;;20.60;91.20;;;;;;5115845;28;19915;-59
2023/05/30 07:33:13;;;;;;;;;;;20.60;91.60;;;;;;5115624;28;20295;-59
2023/05/30 07:35:39;;;;;;;;;;;20.60;91.70;;;;;;5111438;28;20343;-58
2023/05/30 07:38:04;;;;;;;;;;;20.60;91.60;;;;;;5099063;28;19920;-59
2023/05/30 07:40:30;;;;;;;;;;;20.60;91.70;;;;;;5091671;28;19912;-58
2023/05/30 07:42:55;;;;;;;;;;;20.60;91.20;;;;;;5094859;28;20412;-59
2023/05/30 07:45:21;;;;;;;;;;;20.60;91.30;;;;;;5095155;28;20073;-59
2023/05/30 07:47:46;;;;;;;;;;;20.60;91.50;;;;;;5077030;28;19918;-59
2023/05/30 07:50:12;;;;;;;;;;;20.60;91.30;;;;;;5095731;28;20273;-59
2023/05/30 07:52:37;;;;;;;;;;;20.60;91.10;;;;;;5105804;28;19937;-58
2023/05/30 07:55:03;;;;;;;;;;;20.60;91.00;;;;;;5105937;28;19957;-59
2023/05/30 07:57:28;;;;;;;;;;;20.60;88.80;;;;;;5096447;28;19962;-59
2023/05/30 07:59:54;;;;;;;;;;;20.60;90.00;;;;;;5094898;28;19973;-51
2023/05/30 08:02:20;;;;;;;;;;;20.60;90.60;;;;;;5094374;28;19998;-59
2023/05/30 08:04:46;;;;;;;;;;;20.60;90.50;;;;;;5103001;28;19929;-58
2023/05/30 08:07:11;;;;;;;;;;;20.60;90.40;;;;;;5094839;28;19916;-59
2023/05/30 08:09:37;;;;;;;;;;;20.60;89.30;;;;;;5094496;28;20259;-58
2023/05/30 08:12:04;;;;;;;;;;;20.60;88.40;;;;;;5094905;28;19915;-58
2023/05/30 08:14:31;;;;;;;;;;;20.60;89.00;;;;;;5094863;28;19908;-58
2023/05/30 08:16:56;;;;;;;;;;;20.60;88.80;;;;;;5094820;28;19915;-58
2023/05/30 08:19:21;;;;;;;;;;;20.60;88.80;;;;;;5094609;28;19912;-59
2023/05/30 08:21:47;;;;;;;;;;;20.60;88.70;;;;;;5101600;28;19912;-59
2023/05/30 08:24:15;;;;;;;;;;;20.60;89.40;;;;;;5094549;28;20006;-59
2023/05/30 08:26:41;;;;;;;;;;;20.60;90.00;;;;;;5103339;28;20255;-59
2023/05/30 08:29:06;;;;;;;;;;;20.60;90.20;;;;;;5114869;28;19907;-59
2023/05/30 08:31:32;;;;;;;;;;;20.60;90.90;;;;;;5114828;28;20320;-59
2023/05/30 08:33:57;;;;;;;;;;;20.60;91.00;;;;;;5100483;28;19951;-58
2023/05/30 08:36:23;;;;;;;;;;;20.60;91.10;;;;;;5094080;28;19915;-59
2023/05/30 08:38:54;;;;;;;;;;;20.60;91.50;;;;;;5094596;28;20367;-59
2023/05/30 08:41:20;;;;;;;;;;;20.60;91.60;;;;;;5094912;28;20375;-58
2023/05/30 08:43:46;;;;;;;;;;;20.60;91.50;;;;;;5094320;28;19920;-59
2023/05/30 08:46:12;;;;;;;;;;;20.60;91.40;;;;;;5094307;28;19927;-59
2023/05/30 08:48:38;;;;;;;;;;;20.60;92.00;;;;;;5094532;28;19919;-59
2023/05/30 08:51:04;;;;;;;;;;;20.60;91.90;;;;;;5094149;28;20259;-59
2023/05/30 08:53:37;;;;;;;;;;;20.60;92.20;;;;;;5094366;28;19916;-58
2023/05/30 08:56:07;;;;;;;;;;;20.60;92.50;;;;;;5098272;28;19934;-59
2023/05/30 08:58:35;;;;;;;;;;;20.60;92.80;;;;;;5112096;28;20277;-59
2023/05/30 09:01:01;;;;;;;;;;;20.60;92.70;;;;;;5114446;28;20248;-59
2023/05/30 09:03:28;;;;;;;;;;;20.60;92.60;;;;;;5094544;28;20334;-59
2023/05/30 09:05:54;;;;;;;;;;;20.60;92.40;;;;;;5075806;28;20354;-58
2023/05/30 09:08:22;;;;;;;;;;;20.60;92.30;;;;;;5092441;28;19912;-59
2023/05/30 09:10:48;;;;;;;;;;;20.60;92.10;;;;;;5093948;28;20359;-60
2023/05/30 09:13:15;;;;;;;;;;;20.60;92.10;;;;;;5100707;28;19912;-59
2023/05/30 09:15:40;;;;;;;;;;;20.60;92.20;;;;;;5096742;28;20409;-59
2023/05/30 09:18:06;;;;;;;;;;;20.60;92.00;;;;;;5091157;28;19948;-59
2023/05/30 09:20:31;;;;;;;;;;;20.60;91.30;;;;;;5098392;28;19919;-59
2023/05/30 09:22:57;;;;;;;;;;;20.70;90.90;;;;;;5118349;28;20358;-59
2023/05/30 09:25:23;;;;;;;;;;;20.60;91.40;;;;;;5100614;28;19969;-59
2023/05/30 09:27:50;;;;;;;;;;;20.60;91.10;;;;;;5100355;28;20006;-59
2023/05/30 09:30:16;;;;;;;;;;;20.70;91.00;;;;;;5100066;28;19912;-59
2023/05/30 09:32:42;;;;;;;;;;;20.70;91.60;;;;;;5100839;28;19927;-59
2023/05/30 09:35:12;;;;;;;;;;;20.60;91.90;;;;;;5100754;28;19915;-58
2023/05/30 09:37:38;;;;;;;;;;;20.60;92.00;;;;;;5100330;28;20274;-58
2023/05/30 09:40:07;;;;;;;;;;;20.70;91.90;;;;;;5100594;28;19912;-57
2023/05/30 09:42:40;;;;;;;;;;;20.70;92.40;;;;;;5106743;28;20255;-55
2023/05/30 09:45:06;;;;;;;;;;;20.70;92.30;;;;;;5099942;28;19920;-55
2023/05/30 09:47:37;;;;;;;;;;;20.70;92.10;;;;;;5100080;28;19957;-57
2023/05/30 09:50:03;;;;;;;;;;;20.70;91.90;;;;;;5100238;28;19942;-54
2023/05/30 09:52:29;;;;;;;;;;;20.70;92.10;;;;;;5100771;28;19908;-59
2023/05/30 09:54:55;;;;;;;;;;;20.70;92.60;;;;;;5100354;28;19908;-60
2023/05/30 09:57:21;;;;;;;;;;;20.70;92.40;;;;;;5100318;28;19919;-59
2023/05/30 09:59:48;;;;;;;;;;;20.70;92.40;;;;;;5100213;28;19908;-59
2023/05/30 10:02:20;;;;;;;;;;;20.70;92.00;;;;;;5082002;28;20266;-58
2023/05/30 10:04:47;;;;;;;;;;;20.70;92.40;;;;;;5099831;28;19918;-58
2023/05/30 10:07:14;;;;;;;;;;;20.70;92.20;;;;;;5100238;28;19912;-60
2023/05/30 10:09:40;;;;;;;;;;;20.80;92.50;;;;;;5099934;28;19958;-60
2023/05/30 10:12:06;;;;;;;;;;;20.80;92.60;;;;;;5100156;28;20344;-59
2023/05/30 10:14:33;;;;;;;;;;;20.80;92.70;;;;;;5100248;28;19918;-60
2023/05/30 10:17:06;;;;;;;;;;;20.70;92.70;;;;;;5100403;28;20412;-57
2023/05/30 10:19:44;;;;;;;;;;;20.70;92.20;;;;;;5099943;28;19940;-58
2023/05/30 10:22:12;;;;;;;;;;;20.80;92.80;;;;;;5115683;28;19915;-50
2023/05/30 10:24:41;;;;;;;;;;;20.80;92.50;;;;;;5110354;28;19912;-61
2023/05/30 10:27:10;;;;;;;;;;;20.80;92.50;;;;;;5096151;28;20351;-65
2023/05/30 10:29:41;;;;;;;;;;;20.80;92.50;;;;;;5096699;28;19912;-63
2023/05/30 10:32:07;;;;;;;;;;;20.80;92.40;;;;;;5096789;28;19908;-62
2023/05/30 10:34:46;;;;;;;;;;;20.80;92.60;;;;;;5096683;28;20267;-64
2023/05/30 10:37:12;;;;;;;;;;;20.80;92.60;;;;;;5097098;28;19915;-63
2023/05/30 10:39:43;;;;;;;;;;;20.80;93.10;;;;;;5096286;28;19908;-64
2023/05/30 10:42:14;;;;;;;;;;;20.80;93.10;;;;;;5078397;28;19948;-62
2023/05/30 10:45:07;;;;;;;;;;;20.80;93.00;;;;;;5096391;28;19924;-64
2023/05/30 10:47:35;;;;;;;;;;;20.80;93.10;;;;;;5096794;28;19914;-62
2023/05/30 10:50:04;;;;;;;;;;;20.80;93.20;;;;;;5096497;28;20263;-62
2023/05/30 10:52:31;;;;;;;;;;;20.80;93.10;;;;;;5096075;28;19908;-45
2023/05/30 10:54:56;;;;;;;;;;;20.80;93.60;;;;;;5096199;28;19908;-43
2023/05/30 10:57:28;;;;;;;;;;;20.90;93.20;;;;;;5096147;28;20270;-45
2023/05/30 10:59:54;;;;;;;;;;;20.80;92.80;;;;;;5096404;28;19915;-50
2023/05/30 11:02:31;;;;;;;;;;;20.90;93.10;;;;;;5096392;28;20004;-48
2023/05/30 11:05:02;;;;;;;;;;;20.80;92.50;;;;;;5103797;28;19920;-44
2023/05/30 11:07:28;;;;;;;;;;;20.80;92.60;;;;;;5106504;28;19919;-45
2023/05/30 11:10:00;;;;;;;;;;;20.90;92.60;;;;;;5091406;28;19912;-45
2023/05/30 11:12:26;;;;;;;;;;;20.90;92.70;;;;;;5101802;28;20371;-45
2023/05/30 11:14:55;;;;;;;;;;;20.90;92.60;;;;;;5094837;28;19937;-46
2023/05/30 11:17:27;;;;;;;;;;;20.80;92.60;;;;;;5084713;28;19908;-45
2023/05/30 11:20:05;;;;;;;;;;;20.80;92.30;;;;;;5093043;28;20003;-46
2023/05/30 11:22:30;;;;;;;;;;;20.90;92.30;;;;;;5096212;28;20362;-44
2023/05/30 11:25:14;;;;;;;;;;;20.90;92.90;;;;;;5113392;28;19916;-46
2023/05/30 11:27:59;;;;;;;;;;;20.90;92.50;;;;;;5107060;28;19908;-47
2023/05/30 11:30:25;;;;;;;;;;;20.90;92.30;;;;;;5077564;28;19904;-44
2023/05/30 11:32:53;;;;;;;;;;;20.90;92.10;;;;;;5106267;28;19954;-41
2023/05/30 11:35:18;;;;;;;;;;;20.90;92.50;;;;;;5111278;28;20562;-49
2023/05/30 11:37:44;;;;;;;;;;;20.90;93.40;;;;;;5089003;28;19923;-50
2023/05/30 11:40:13;;;;;;;;;;;20.90;93.30;;;;;;5093579;28;19952;-51
2023/05/30 11:42:38;;;;;;;;;;;20.90;93.00;;;;;;5096692;28;19915;-50
2023/05/30 11:45:05;;;;;;;;;;;20.90;92.70;;;;;;5093361;28;20254;-51
2023/05/30 11:47:31;;;;;;;;;;;20.80;92.90;;;;;;5093627;28;20065;-50
2023/05/30 11:49:57;;;;;;;;;;;20.80;92.90;;;;;;5091596;28;19990;-51
2023/05/30 11:52:22;;;;;;;;;;;20.80;93.00;;;;;;5111179;28;19914;-50
2023/05/30 11:54:48;;;;;;;;;;;20.80;93.00;;;;;;5115956;28;19905;-52
2023/05/30 11:57:17;;;;;;;;;;;20.70;93.10;;;;;;5108109;28;19912;-52
2023/05/30 11:59:44;;;;;;;;;;;20.70;93.40;;;;;;5112677;28;19923;-49
2023/05/30 12:02:09;;;;;;;;;;;20.70;93.40;;;;;;5109720;28;19937;-51
2023/05/30 12:04:37;;;;;;;;;;;20.70;93.30;;;;;;5115227;28;20329;-48
2023/05/30 12:07:03;;;;;;;;;;;20.70;93.30;;;;;;5112827;28;19912;-48
2023/05/30 12:09:34;;;;;;;;;;;20.70;93.50;;;;;;5099491;28;19915;-48
2023/05/30 12:12:00;;;;;;;;;;;20.60;93.40;;;;;;5091405;28;19908;-49
2023/05/30 12:14:30;;;;;;;;;;;20.70;93.30;;;;;;5073957;28;20041;-47
2023/05/30 12:16:56;;;;;;;;;;;20.60;93.20;;;;;;5084070;28;19931;-53
2023/05/30 12:19:30;;;;;;;;;;;20.70;93.40;;;;;;5075793;28;20080;-53
2023/05/30 12:21:56;;;;;;;;;;;20.60;92.90;;;;;;5090908;28;19920;-51
2023/05/30 12:24:25;;;;;;;;;;;20.60;93.30;;;;;;5092046;28;20015;-49
2023/05/30 12:26:55;;;;;;;;;;;20.70;93.40;;;;;;5094433;28;20023;-49
2023/05/30 12:29:24;;;;;;;;;;;20.70;93.20;;;;;;5094236;28;19908;-50
2023/05/30 12:31:50;;;;;;;;;;;20.60;93.00;;;;;;5094405;28;19908;-49
2023/05/30 12:34:16;;;;;;;;;;;20.60;93.20;;;;;;5091136;28;19908;-58
2023/05/30 12:36:41;;;;;;;;;;;20.70;93.20;;;;;;5077073;28;20003;-49
2023/05/30 12:39:07;;;;;;;;;;;20.60;93.20;;;;;;5073944;28;19954;-49
2023/05/30 12:41:36;;;;;;;;;;;20.60;93.20;;;;;;5073759;28;19930;-47
2023/05/30 12:44:02;;;;;;;;;;;20.70;93.30;;;;;;5073917;28;19936;-53
2023/05/30 12:46:27;;;;;;;;;;;20.70;93.20;;;;;;5073929;28;19917;-48
2023/05/30 12:48:53;;;;;;;;;;;20.60;93.30;;;;;;5076159;28;19920;-48
2023/05/30 12:51:18;;;;;;;;;;;20.60;93.30;;;;;;5094499;28;19959;-50
2023/05/30 12:53:44;;;;;;;;;;;20.60;93.20;;;;;;5088120;28;19913;-50
2023/05/30 12:56:12;;;;;;;;;;;20.60;93.20;;;;;;5083904;28;19939;-49
2023/05/30 12:58:38;;;;;;;;;;;20.60;93.20;;;;;;5089316;28;19908;-49
2023/05/30 13:01:03;;;;;;;;;;;20.60;93.30;;;;;;5094736;28;19919;-52
2023/05/30 13:03:29;;;;;;;;;;;20.60;93.20;;;;;;5087148;28;19916;-51
2023/05/30 13:05:54;;;;;;;;;;;20.70;93.30;;;;;;5092565;28;19920;-52
2023/05/30 13:08:20;;;;;;;;;;;20.60;93.10;;;;;;5090948;28;19912;-51
2023/05/30 13:10:45;;;;;;;;;;;20.60;92.90;;;;;;5093017;28;19919;-53
2023/05/30 13:13:11;;;;;;;;;;;20.60;92.60;;;;;;5093935;28;19912;-51
2023/05/30 13:15:36;;;;;;;;;;;20.60;92.80;;;;;;5093773;28;19970;-50
2023/05/30 13:18:02;;;;;;;;;;;20.60;92.80;;;;;;5111246;28;19916;-51
2023/05/30 13:20:27;;;;;;;;;;;20.60;93.00;;;;;;5090037;28;19908;-48
2023/05/30 13:22:53;;;;;;;;;;;20.60;93.00;;;;;;5095810;28;19910;-50
2023/05/30 13:25:18;;;;;;;;;;;20.60;93.10;;;;;;5087584;28;19985;-48
2023/05/30 13:27:44;;;;;;;;;;;20.60;92.80;;;;;;5105331;28;19931;-48
2023/05/30 13:30:12;;;;;;;;;;;20.60;92.90;;;;;;5093516;28;19910;-49
2023/05/30 13:32:37;;;;;;;;;;;20.60;93.40;;;;;;5093657;28;19913;-50
2023/05/30 13:35:03;;;;;;;;;;;20.70;93.60;;;;;;5108530;28;19908;-54
2023/05/30 13:37:28;;;;;;;;;;;20.60;93.80;;;;;;5106023;28;19929;-48
2023/05/30 13:39:54;;;;;;;;;;;20.60;93.80;;;;;;5093351;28;19904;-52
2023/05/30 13:42:20;;;;;;;;;;;20.70;93.80;;;;;;5093347;28;19998;-53
2023/05/30 13:44:46;;;;;;;;;;;20.60;93.90;;;;;;5093438;28;19916;-51
2023/05/30 13:47:11;;;;;;;;;;;20.70;94.20;;;;;;5072994;28;19928;-52
2023/05/30 13:49:37;;;;;;;;;;;20.70;94.20;;;;;;5073370;28;20007;-53
2023/05/30 13:52:03;;;;;;;;;;;20.70;94.10;;;;;;5073337;28;19904;-52
2023/05/30 13:54:29;;;;;;;;;;;20.70;94.30;;;;;;5101995;28;20346;-48
2023/05/30 13:56:55;;;;;;;;;;;20.70;94.20;;;;;;5113850;28;19915;-52
2023/05/30 13:59:21;;;;;;;;;;;20.70;94.70;;;;;;5113968;28;19947;-49
2023/05/30 14:01:46;;;;;;;;;;;20.70;94.70;;;;;;5112029;28;19904;-54
2023/05/30 14:04:12;;;;;;;;;;;20.70;94.20;;;;;;5097137;28;19908;-47
2023/05/30 14:06:37;;;;;;;;;;;20.70;94.10;;;;;;5097217;28;20430;-52
2023/05/30 14:09:04;;;;;;;;;;;20.70;93.90;;;;;;5096876;28;19955;-53
2023/05/30 14:11:30;;;;;;;;;;;20.70;94.60;;;;;;5097055;28;19904;-54
2023/05/30 14:13:56;;;;;;;;;;;20.70;95.10;;;;;;5078840;28;19911;-51